PASIPAFE

Guest
Details From PASI - SITKA ROCKY GUTIERREZ
To PAFE - KAKE
Flight Number -
Tags generated
Created
Modified
Stats Distance 48 nm / 89 km
Max Altitude 4,300 ft / 1,311 m
Waypoints 3
Social Downloads 1
Likes 0
Share VATSIM

Download

Looking for another format? Having issues loading an existing format? Contact us
Advertisement - Login to hide

Notes

Basic altitude profile: - Ascent Rate: 2500ft/min - Ascent Speed: 250kts - Cruise Altitude: 35000ft - Cruise Speed: 420kts - Descent Rate: 1500ft/min - Descent Speed: 250kts Options: - Use NATs: yes - Use PACOTS: yes - Use low airways: yes - Use high airways: yes

Route

PASI 5700N13500W PAFE

ID Type Via Altitude Latitude Longitude Leg Dist Tot Dist Heading (true) Name
O PASI APT - 0 ft / 0 m 57.04713˚ -135.36160˚ - 0 nm - SITKA ROCKY GUTIERREZ
5700N13500W LATLON - 4,300 ft / 1,311 m 57.00000˚ -135.00000˚ 12 nm 12 nm 103° / 104° -
O PAFE APT - 0 ft / 0 m 56.96136˚ -133.91026˚ 35 nm 47 nm 93° / 94° KAKE

Altitude Profile

Advertisement - Login to hide

PASI

Details ICAO PASI (SIT)
Name SITKA ROCKY GUTIERREZ
Region USA (Alaska)
Timezone America/Juneau (UTC-8.0)
Stats Elevation 21 ft / 6 m (AMSL)
Location 57.047128° -135.361597°
Runways 1
Magnetic Variation 18.635° E

METAR

PASI 202253Z 13009KT 7SM -RA SCT025 OVC042 11/08 A2981

Decode

TAF

PASI 202336Z 2100/2124 13009KT P6SM -RA SCT025 OVC040 FM210300 15008KT P6SM -RA BKN025 OVC040 FM211000 14016G26KT 4SM -RA BR BKN015 OVC025 WS020/15040KT

Decode

Departure Runways

ID Width Length Bearing (true) Bearing (mag) Surface Threshold Offset Overrun Length
11 150 ft / 46 m 6,485 ft / 1,977 m 135.57° 116.94° Asphalt 0 ft / 0 m 0 ft / 0 m
29 150 ft / 46 m 6,485 ft / 1,977 m 315.59° 296.96° Asphalt 0 ft / 0 m 0 ft / 0 m

PAFE

Details ICAO PAFE (AFE)
Name KAKE
Region USA (Alaska)
Timezone America/Juneau (UTC-8.0)
Stats Elevation 172 ft / 52 m (AMSL)
Location 56.961362° -133.910261°
Runways 1
Magnetic Variation 18.735° E

METAR

PAFE 202256Z AUTO 12015G21KT 10SM BKN038 OVC045 11/07 A2991 RMK AO2 RAE45 SLP140 P0000 T01060067 $

Decode

TAF

Not found

Destination Runways

ID Width Length Bearing (true) Bearing (mag) Surface Threshold Offset Overrun Length
10 100 ft / 30 m 3,990 ft / 1,216 m 129.93° 111.19° Asphalt 0 ft / 0 m 295 ft / 90 m
28 100 ft / 30 m 3,990 ft / 1,216 m 309.94° 291.20° Asphalt 1,000 ft / 305 m 295 ft / 90 m

Popular Alternatives